Time;durP1;ratioP1;P1;durP2;ratioP2;P2;SDS_P1;SDS_P2;PMS_P1;PMS_P2;Temp;Humidity;BMP_temperature;BMP_pressure;BME280_temperature;BME280_humidity;BME280_pressure;Samples;Min_cycle;Max_cycle;Signal;HPM_P1;HPM_P2
2023/07/14 00:01:29;;;;;;;;;;;;;;;;;;5060879;28;20078;-65
2023/07/14 00:03:55;;;;;;;;;;;;;;;;;;5060404;28;20403;-64
2023/07/14 00:06:21;;;;;;;;;;;;;;;;;;5060697;28;19928;-64
2023/07/14 00:08:47;;;;;;;;;;;;;;;;;;5060905;28;20011;-65
2023/07/14 00:11:13;;;;;;;;;;;;;;;;;;5060460;28;20015;-65
2023/07/14 00:13:39;;;;;;;;;;;;;;;;;;5059278;28;19974;-65
2023/07/14 00:16:05;;;;;;;;;;;;;;;;;;5060837;28;19924;-64
2023/07/14 00:18:31;;;;;;;;;;;;;;;;;;5060517;28;19929;-64
2023/07/14 00:20:57;;;;;;;;;;;;;;;;;;5042800;28;19929;-64
2023/07/14 00:23:23;;;;;;;;;;;;;;;;;;5060840;28;19928;-64
2023/07/14 00:25:49;;;;;;;;;;;;;;;;;;5059652;28;20378;-64
2023/07/14 00:28:15;;;;;;;;;;;;;;;;;;5059883;28;19982;-64
2023/07/14 00:30:41;;;;;;;;;;;;;;;;;;5060354;28;19928;-64
2023/07/14 00:33:08;;;;;;;;;;;;;;;;;;5059980;28;19928;-64
2023/07/14 00:35:34;;;;;;;;;;;;;;;;;;5042952;28;19947;-64
2023/07/14 00:38:00;;;;;;;;;;;;;;;;;;5060092;28;20678;-64
2023/07/14 00:40:26;;;;;;;;;;;;;;;;;;5060543;28;20271;-65
2023/07/14 00:42:52;;;;;;;;;;;;;;;;;;5059994;28;20035;-64
2023/07/14 00:45:18;;;;;;;;;;;;;;;;;;5059711;28;19947;-63
2023/07/14 00:47:44;;;;;;;;;;;;;;;;;;5060055;28;19931;-63
2023/07/14 00:50:10;;;;;;;;;;;;;;;;;;5060383;28;19940;-63
2023/07/14 00:52:36;;;;;;;;;;;;;;;;;;5060626;28;19948;-65
2023/07/14 00:55:02;;;;;;;;;;;;;;;;;;5059658;28;19939;-63
2023/07/14 00:57:29;;;;;;;;;;;;;;;;;;5060700;28;20818;-63
2023/07/14 00:59:55;;;;;;;;;;;;;;;;;;5059484;28;19928;-63
2023/07/14 01:02:21;;;;;;;;;;;;;;;;;;5060303;28;19940;-63
2023/07/14 01:04:47;;;;;;;;;;;;;;;;;;5133473;22;19924;-68
2023/07/14 01:07:14;;;;;;;;;;;;;;;;;;5029515;28;19964;-70
2023/07/14 01:09:40;;;;;;;;;;;;;;;;;;5043431;28;20905;-68
2023/07/14 01:12:06;;;;;;;;;;;;;;;;;;5039555;28;19964;-69
2023/07/14 01:14:32;;;;;;;;;;;;;;;;;;5038323;28;20414;-69
2023/07/14 01:16:58;;;;;;;;;;;;;;;;;;5040634;28;19977;-69
2023/07/14 01:19:24;;;;;;;;;;;;;;;;;;5045460;28;20018;-69
2023/07/14 01:21:50;;;;;;;;;;;;;;;;;;5046072;28;20308;-69
2023/07/14 01:24:16;;;;;;;;;;;;;;;;;;5049992;28;20018;-69
2023/07/14 01:26:42;;;;;;;;;;;;;;;;;;5054660;28;20019;-68
2023/07/14 01:29:08;;;;;;;;;;;;;;;;;;5045586;28;19932;-69
2023/07/14 01:31:35;;;;;;;;;;;;;;;;;;5045401;28;19962;-69
2023/07/14 01:34:02;;;;;;;;;;;;;;;;;;5045726;28;20467;-68
2023/07/14 01:36:28;;;;;;;;;;;;;;;;;;5046261;28;19925;-68
2023/07/14 01:38:54;;;;;;;;;;;;;;;;;;5050434;28;20517;-68
2023/07/14 01:41:20;;;;;;;;;;;;;;;;;;5065064;28;19924;-69
2023/07/14 01:43:46;;;;;;;;;;;;;;;;;;5060374;28;19979;-67
2023/07/14 01:46:12;;;;;;;;;;;;;;;;;;5046484;28;20467;-67
2023/07/14 01:48:38;;;;;;;;;;;;;;;;;;5059071;28;19947;-68
2023/07/14 01:51:04;;;;;;;;;;;;;;;;;;5045827;28;20039;-68
2023/07/14 01:53:30;;;;;;;;;;;;;;;;;;5045394;28;19925;-67
2023/07/14 01:55:56;;;;;;;;;;;;;;;;;;5052661;28;19993;-68
2023/07/14 01:58:22;;;;;;;;;;;;;;;;;;5050816;28;19987;-68
2023/07/14 02:00:48;;;;;;;;;;;;;;;;;;5045941;28;19979;-67
2023/07/14 02:03:14;;;;;;;;;;;;;;;;;;5045285;28;19928;-68
2023/07/14 02:05:40;;;;;;;;;;;;;;;;;;5045378;28;19929;-68
2023/07/14 02:08:06;;;;;;;;;;;;;;;;;;5045145;28;19983;-67
2023/07/14 02:10:32;;;;;;;;;;;;;;;;;;5027094;28;20660;-67
2023/07/14 02:12:58;;;;;;;;;;;;;;;;;;5051548;28;19924;-67
2023/07/14 02:15:24;;;;;;;;;;;;;;;;;;5051775;28;19925;-67
2023/07/14 02:17:50;;;;;;;;;;;;;;;;;;5044873;28;20374;-67
2023/07/14 02:20:16;;;;;;;;;;;;;;;;;;5045074;28;20415;-67
2023/07/14 02:22:42;;;;;;;;;;;;;;;;;;5044049;28;20421;-67
2023/07/14 02:25:08;;;;;;;;;;;;;;;;;;5044719;28;19924;-67
2023/07/14 02:27:34;;;;;;;;;;;;;;;;;;5044845;28;19929;-67
2023/07/14 02:30:00;;;;;;;;;;;;;;;;;;5044620;28;20015;-66
2023/07/14 02:32:26;;;;;;;;;;;;;;;;;;5045495;28;19929;-66
2023/07/14 02:34:52;;;;;;;;;;;;;;;;;;5044498;28;20019;-67
2023/07/14 02:37:18;;;;;;;;;;;;;;;;;;5044419;28;19951;-68
2023/07/14 02:39:43;;;;;;;;;;;;;;;;;;5044276;28;20012;-67
2023/07/14 02:42:09;;;;;;;;;;;;;;;;;;5044859;28;19995;-67
2023/07/14 02:44:36;;;;;;;;;;;;;;;;;;5044174;28;19951;-67
2023/07/14 02:47:02;;;;;;;;;;;;;;;;;;5016066;28;19974;-68
2023/07/14 02:49:28;;;;;;;;;;;;;;;;;;5051916;28;19963;-67
2023/07/14 02:51:54;;;;;;;;;;;;;;;;;;5044031;28;20402;-68
2023/07/14 02:54:20;;;;;;;;;;;;;;;;;;5044496;28;20407;-68
2023/07/14 02:56:46;;;;;;;;;;;;;;;;;;5044182;28;20402;-68
2023/07/14 02:59:12;;;;;;;;;;;;;;;;;;5043806;28;19925;-67
2023/07/14 03:01:38;;;;;;;;;;;;;;;;;;5044373;28;20416;-67
2023/07/14 03:04:04;;;;;;;;;;;;;;;;;;5043971;28;19924;-68
2023/07/14 03:06:30;;;;;;;;;;;;;;;;;;5043383;28;20074;-68
2023/07/14 03:08:56;;;;;;;;;;;;;;;;;;5044030;28;20433;-68
2023/07/14 03:11:22;;;;;;;;;;;;;;;;;;5043665;28;19931;-68
2023/07/14 03:13:48;;;;;;;;;;;;;;;;;;5044075;28;20063;-68
2023/07/14 03:16:15;;;;;;;;;;;;;;;;;;5043913;28;20026;-69
2023/07/14 03:18:41;;;;;;;;;;;;;;;;;;5043444;28;19936;-66
2023/07/14 03:21:07;;;;;;;;;;;;;;;;;;5043873;28;19924;-68
2023/07/14 03:23:33;;;;;;;;;;;;;;;;;;5043759;28;19998;-69
2023/07/14 03:25:59;;;;;;;;;;;;;;;;;;5043445;28;19980;-69
2023/07/14 03:28:25;;;;;;;;;;;;;;;;;;5024765;28;19924;-69
2023/07/14 03:30:51;;;;;;;;;;;;;;;;;;5043353;28;19939;-69
2023/07/14 03:33:17;;;;;;;;;;;;;;;;;;5043509;28;19935;-71
2023/07/14 03:35:42;;;;;;;;;;;;;;;;;;5043496;28;19929;-72
2023/07/14 03:38:08;;;;;;;;;;;;;;;;;;5043300;28;19929;-70
2023/07/14 03:40:34;;;;;;;;;;;;;;;;;;5043429;28;19931;-70
2023/07/14 03:43:03;;;;;;;;;;;;;;;;;;5042559;28;19929;-69
2023/07/14 03:45:29;;;;;;;;;;;;;;;;;;5044312;28;19971;-70
2023/07/14 03:47:55;;;;;;;;;;;;;;;;;;5042830;28;19928;-69
2023/07/14 03:50:20;;;;;;;;;;;;;;;;;;5055695;28;19994;-68
2023/07/14 03:52:46;;;;;;;;;;;;;;;;;;5043327;28;19925;-68
2023/07/14 03:55:12;;;;;;;;;;;;;;;;;;5043131;28;19925;-68
2023/07/14 03:57:38;;;;;;;;;;;;;;;;;;5043012;28;19932;-69
2023/07/14 04:00:12;;;;;;;;;;;;;;;;;;5043140;28;20341;-68
2023/07/14 04:02:38;;;;;;;;;;;;;;;;;;5043079;28;19925;-68
2023/07/14 04:05:04;;;;;;;;;;;;;;;;;;5043565;28;19986;-68
2023/07/14 04:07:30;;;;;;;;;;;;;;;;;;5043479;28;19928;-68
2023/07/14 04:09:57;;;;;;;;;;;;;;;;;;5043581;28;19954;-68
2023/07/14 04:12:23;;;;;;;;;;;;;;;;;;5042778;28;19925;-68
2023/07/14 04:14:49;;;;;;;;;;;;;;;;;;5042482;28;19932;-68
2023/07/14 04:17:15;;;;;;;;;;;;;;;;;;5042800;28;19932;-68
2023/07/14 04:19:40;;;;;;;;;;;;;;;;;;5043526;28;19928;-68
2023/07/14 04:22:06;;;;;;;;;;;;;;;;;;5042715;28;20298;-68
2023/07/14 04:24:32;;;;;;;;;;;;;;;;;;5043435;28;20393;-69
2023/07/14 04:26:58;;;;;;;;;;;;;;;;;;5043325;28;20330;-68
2023/07/14 04:29:24;;;;;;;;;;;;;;;;;;5041886;28;19925;-68
2023/07/14 04:31:50;;;;;;;;;;;;;;;;;;5043416;28;19991;-67
2023/07/14 04:34:16;;;;;;;;;;;;;;;;;;5042741;28;20029;-69
2023/07/14 04:36:44;;;;;;;;;;;;;;;;;;5042721;28;19920;-68
2023/07/14 04:39:10;;;;;;;;;;;;;;;;;;5043077;28;19925;-68
2023/07/14 04:41:36;;;;;;;;;;;;;;;;;;5042992;28;20067;-68
2023/07/14 04:44:03;;;;;;;;;;;;;;;;;;5041711;28;20011;-68
2023/07/14 04:46:29;;;;;;;;;;;;;;;;;;5043282;28;20082;-68
2023/07/14 04:48:55;;;;;;;;;;;;;;;;;;5052105;28;20421;-67
2023/07/14 04:51:21;;;;;;;;;;;;;;;;;;5048366;28;20594;-68
2023/07/14 04:53:47;;;;;;;;;;;;;;;;;;5046834;28;20294;-68
2023/07/14 04:56:13;;;;;;;;;;;;;;;;;;5046347;28;19925;-69
2023/07/14 04:58:39;;;;;;;;;;;;;;;;;;5045671;28;19925;-69
2023/07/14 05:01:05;;;;;;;;;;;;;;;;;;5045290;28;19925;-69
2023/07/14 05:03:31;;;;;;;;;;;;;;;;;;5045416;28;20513;-67
2023/07/14 05:05:57;;;;;;;;;;;;;;;;;;5043810;28;20173;-69
2023/07/14 05:08:23;;;;;;;;;;;;;;;;;;5043760;28;19925;-68
2023/07/14 05:10:49;;;;;;;;;;;;;;;;;;5044164;28;20043;-68
2023/07/14 05:13:15;;;;;;;;;;;;;;;;;;5045353;28;19924;-68
2023/07/14 05:15:41;;;;;;;;;;;;;;;;;;5045829;28;19936;-67
2023/07/14 05:18:07;;;;;;;;;;;;;;;;;;5046354;28;19961;-68
2023/07/14 05:20:33;;;;;;;;;;;;;;;;;;5045610;28;20005;-68
2023/07/14 05:23:00;;;;;;;;;;;;;;;;;;5029112;28;19924;-67
2023/07/14 05:25:26;;;;;;;;;;;;;;;;;;5045791;28;19931;-68
2023/07/14 05:27:52;;;;;;;;;;;;;;;;;;5045578;28;19924;-67
2023/07/14 05:30:18;;;;;;;;;;;;;;;;;;5046539;28;20035;-68
2023/07/14 05:32:44;;;;;;;;;;;;;;;;;;5046066;28;19964;-68
2023/07/14 05:35:11;;;;;;;;;;;;;;;;;;5045576;28;19932;-68
2023/07/14 05:37:37;;;;;;;;;;;;;;;;;;5046143;28;20009;-68
2023/07/14 05:40:05;;;;;;;;;;;;;;;;;;5044946;28;19925;-70
2023/07/14 05:42:31;;;;;;;;;;;;;;;;;;5045044;28;19929;-70
2023/07/14 05:44:57;;;;;;;;;;;;;;;;;;5044747;28;19924;-70
2023/07/14 05:47:26;;;;;;;;;;;;;;;;;;5048992;28;19925;-68
2023/07/14 05:49:52;;;;;;;;;;;;;;;;;;5045704;28;19979;-70
2023/07/14 05:52:18;;;;;;;;;;;;;;;;;;5045508;28;19925;-68
2023/07/14 05:54:45;;;;;;;;;;;;;;;;;;5042651;28;19935;-68
2023/07/14 05:57:11;;;;;;;;;;;;;;;;;;5043284;28;19921;-68
2023/07/14 05:59:38;;;;;;;;;;;;;;;;;;5044426;28;20023;-68
2023/07/14 06:02:04;;;;;;;;;;;;;;;;;;5021565;28;19969;-69
2023/07/14 06:04:30;;;;;;;;;;;;;;;;;;5042213;28;20441;-69
2023/07/14 06:06:56;;;;;;;;;;;;;;;;;;5044551;28;20566;-69
2023/07/14 06:09:22;;;;;;;;;;;;;;;;;;5044350;28;20421;-69
2023/07/14 06:11:48;;;;;;;;;;;;;;;;;;5044275;28;19932;-70
2023/07/14 06:14:14;;;;;;;;;;;;;;;;;;5043778;28;19925;-70
2023/07/14 06:16:40;;;;;;;;;;;;;;;;;;5045177;28;19925;-70
2023/07/14 06:19:07;;;;;;;;;;;;;;;;;;5044187;28;19955;-70
2023/07/14 06:21:33;;;;;;;;;;;;;;;;;;5043957;28;19931;-70
2023/07/14 06:23:59;;;;;;;;;;;;;;;;;;5044189;28;20018;-70
2023/07/14 06:26:25;;;;;;;;;;;;;;;;;;5042784;28;19931;-71
2023/07/14 06:28:51;;;;;;;;;;;;;;;;;;5042771;28;20219;-70
2023/07/14 06:31:17;;;;;;;;;;;;;;;;;;5043324;28;20333;-70
2023/07/14 06:33:43;;;;;;;;;;;;;;;;;;5036049;28;19933;-70
2023/07/14 06:36:09;;;;;;;;;;;;;;;;;;5044465;28;19931;-68
2023/07/14 06:38:36;;;;;;;;;;;;;;;;;;5044701;28;19968;-68
2023/07/14 06:41:02;;;;;;;;;;;;;;;;;;5044189;28;19968;-68
2023/07/14 06:43:28;;;;;;;;;;;;;;;;;;5026536;28;19970;-68
2023/07/14 06:45:54;;;;;;;;;;;;;;;;;;5044038;28;19928;-68
2023/07/14 06:48:20;;;;;;;;;;;;;;;;;;5047655;28;19925;-69
2023/07/14 06:50:46;;;;;;;;;;;;;;;;;;5054096;28;19925;-70
2023/07/14 06:53:12;;;;;;;;;;;;;;;;;;5044067;28;20023;-69
2023/07/14 06:55:38;;;;;;;;;;;;;;;;;;5043996;28;19928;-70
2023/07/14 06:58:05;;;;;;;;;;;;;;;;;;5043490;28;19928;-70
2023/07/14 07:00:31;;;;;;;;;;;;;;;;;;5026293;28;20058;-69
2023/07/14 07:02:57;;;;;;;;;;;;;;;;;;5043922;28;20019;-70
2023/07/14 07:05:23;;;;;;;;;;;;;;;;;;5044032;28;20079;-69
2023/07/14 07:07:49;;;;;;;;;;;;;;;;;;5043372;28;19960;-70
2023/07/14 07:10:15;;;;;;;;;;;;;;;;;;5044245;28;19925;-69
2023/07/14 07:12:41;;;;;;;;;;;;;;;;;;5042943;28;19929;-69
2023/07/14 07:15:07;;;;;;;;;;;;;;;;;;5009523;28;19950;-70
2023/07/14 07:17:33;;;;;;;;;;;;;;;;;;5043200;28;19948;-69
2023/07/14 07:19:59;;;;;;;;;;;;;;;;;;5044437;28;20297;-70
2023/07/14 07:22:25;;;;;;;;;;;;;;;;;;5042646;28;19948;-70
2023/07/14 07:24:51;;;;;;;;;;;;;;;;;;5044069;28;20030;-70
2023/07/14 07:27:17;;;;;;;;;;;;;;;;;;5042826;28;19971;-70
2023/07/14 07:29:43;;;;;;;;;;;;;;;;;;5043728;28;19968;-70
2023/07/14 07:32:09;;;;;;;;;;;;;;;;;;5009461;28;19946;-70
2023/07/14 07:34:35;;;;;;;;;;;;;;;;;;5043675;28;20409;-70
2023/07/14 07:37:01;;;;;;;;;;;;;;;;;;5043550;28;19929;-66
2023/07/14 07:39:27;;;;;;;;;;;;;;;;;;5043516;28;19921;-70
2023/07/14 07:41:53;;;;;;;;;;;;;;;;;;5042416;28;19924;-69
2023/07/14 07:44:19;;;;;;;;;;;;;;;;;;5043488;28;19929;-70
2023/07/14 07:46:45;;;;;;;;;;;;;;;;;;5043444;28;19986;-69
2023/07/14 07:49:12;;;;;;;;;;;;;;;;;;5053544;28;19935;-68
2023/07/14 07:51:38;;;;;;;;;;;;;;;;;;5045614;28;19931;-70
2023/07/14 07:54:04;;;;;;;;;;;;;;;;;;5043706;28;20409;-69
2023/07/14 07:56:30;;;;;;;;;;;;;;;;;;5043565;28;19964;-69
2023/07/14 07:58:56;;;;;;;;;;;;;;;;;;5043232;28;19960;-69
2023/07/14 08:01:22;;;;;;;;;;;;;;;;;;5043356;28;19979;-70
2023/07/14 08:03:49;;;;;;;;;;;;;;;;;;5042523;28;19964;-70
2023/07/14 08:06:14;;;;;;;;;;;;;;;;;;5043419;28;19925;-67
2023/07/14 08:08:42;;;;;;;;;;;;;;;;;;5042936;28;19983;-66
2023/07/14 08:11:08;;;;;;;;;;;;;;;;;;5043465;28;19931;-68
2023/07/14 08:13:34;;;;;;;;;;;;;;;;;;5042178;28;19925;-67
2023/07/14 08:16:00;;;;;;;;;;;;;;;;;;5043187;28;20426;-68
2023/07/14 08:18:26;;;;;;;;;;;;;;;;;;5043233;28;19971;-68
2023/07/14 08:20:52;;;;;;;;;;;;;;;;;;5042711;28;19928;-67
2023/07/14 08:23:18;;;;;;;;;;;;;;;;;;5043704;28;19924;-68
2023/07/14 08:25:44;;;;;;;;;;;;;;;;;;5046217;28;19937;-67
2023/07/14 08:28:10;;;;;;;;;;;;;;;;;;5028553;28;19921;-68
2023/07/14 08:30:36;;;;;;;;;;;;;;;;;;5046860;28;19974;-68
2023/07/14 08:33:02;;;;;;;;;;;;;;;;;;5046543;28;20020;-68
2023/07/14 08:35:28;;;;;;;;;;;;;;;;;;5047688;28;20369;-67
2023/07/14 08:37:54;;;;;;;;;;;;;;;;;;5046925;28;19932;-67
2023/07/14 08:40:20;;;;;;;;;;;;;;;;;;5028858;28;19924;-67
2023/07/14 08:42:46;;;;;;;;;;;;;;;;;;5027973;28;19925;-67
2023/07/14 08:45:14;;;;;;;;;;;;;;;;;;5046793;28;19920;-67
2023/07/14 08:47:43;;;;;;;;;;;;;;;;;;5033940;28;19950;-68
2023/07/14 08:50:09;;;;;;;;;;;;;;;;;;5059107;28;19925;-68
2023/07/14 08:52:35;;;;;;;;;;;;;;;;;;5047234;28;19920;-68
2023/07/14 08:55:01;;;;;;;;;;;;;;;;;;5046618;28;19928;-67
2023/07/14 08:57:26;;;;;;;;;;;;;;;;;;5046244;28;19925;-67
2023/07/14 08:59:52;;;;;;;;;;;;;;;;;;5045539;28;20003;-67
2023/07/14 09:02:18;;;;;;;;;;;;;;;;;;5046212;28;19924;-67
2023/07/14 09:04:44;;;;;;;;;;;;;;;;;;5046411;28;19948;-67
2023/07/14 09:07:10;;;;;;;;;;;;;;;;;;5046300;28;20393;-67
2023/07/14 09:09:36;;;;;;;;;;;;;;;;;;5046348;28;19929;-66
2023/07/14 09:12:02;;;;;;;;;;;;;;;;;;5027742;28;19928;-67
2023/07/14 09:14:30;;;;;;;;;;;;;;;;;;5045760;28;19924;-67
2023/07/14 09:16:56;;;;;;;;;;;;;;;;;;5046712;28;19925;-68
2023/07/14 09:19:22;;;;;;;;;;;;;;;;;;5046022;28;19925;-69
2023/07/14 09:21:48;;;;;;;;;;;;;;;;;;5046301;28;19931;-67
2023/07/14 09:24:14;;;;;;;;;;;;;;;;;;5045800;28;19971;-66
2023/07/14 09:26:40;;;;;;;;;;;;;;;;;;5045225;28;19990;-68
2023/07/14 09:29:06;;;;;;;;;;;;;;;;;;5046201;28;19971;-67
2023/07/14 09:31:32;;;;;;;;;;;;;;;;;;5046130;28;19935;-67
2023/07/14 09:33:58;;;;;;;;;;;;;;;;;;5046274;28;19928;-67
2023/07/14 09:36:24;;;;;;;;;;;;;;;;;;5045041;28;19925;-67
2023/07/14 09:38:50;;;;;;;;;;;;;;;;;;5045842;28;20320;-67
2023/07/14 09:41:16;;;;;;;;;;;;;;;;;;5045371;28;19928;-67
2023/07/14 09:43:42;;;;;;;;;;;;;;;;;;5044594;28;19954;-66
2023/07/14 09:46:08;;;;;;;;;;;;;;;;;;5045627;28;19921;-67
2023/07/14 09:48:34;;;;;;;;;;;;;;;;;;5050488;28;19930;-68
2023/07/14 09:51:00;;;;;;;;;;;;;;;;;;5053899;28;20204;-67
2023/07/14 09:53:26;;;;;;;;;;;;;;;;;;5045898;28;20108;-67
2023/07/14 09:55:55;;;;;;;;;;;;;;;;;;5045061;28;19928;-66
2023/07/14 09:58:21;;;;;;;;;;;;;;;;;;5044876;28;20469;-66
2023/07/14 10:00:47;;;;;;;;;;;;;;;;;;5045475;28;19928;-67
2023/07/14 10:03:19;;;;;;;;;;;;;;;;;;5045495;28;19951;-66
2023/07/14 10:05:45;;;;;;;;;;;;;;;;;;5039271;28;19925;-66
2023/07/14 10:08:11;;;;;;;;;;;;;;;;;;5044730;28;19936;-66
2023/07/14 10:10:37;;;;;;;;;;;;;;;;;;5045319;28;20382;-66
2023/07/14 10:13:03;;;;;;;;;;;;;;;;;;5044725;28;20289;-66
2023/07/14 10:15:30;;;;;;;;;;;;;;;;;;5044976;28;19986;-66
2023/07/14 10:17:56;;;;;;;;;;;;;;;;;;5045491;28;19924;-66
2023/07/14 10:20:22;;;;;;;;;;;;;;;;;;5045174;28;19978;-67
2023/07/14 10:22:48;;;;;;;;;;;;;;;;;;5044403;28;19996;-66
2023/07/14 10:25:14;;;;;;;;;;;;;;;;;;5045097;28;20062;-66
2023/07/14 10:27:40;;;;;;;;;;;;;;;;;;5044520;28;20004;-67
2023/07/14 10:30:13;;;;;;;;;;;;;;;;;;5044545;28;20590;-67
2023/07/14 10:32:39;;;;;;;;;;;;;;;;;;5044806;28;20011;-68
2023/07/14 10:35:05;;;;;;;;;;;;;;;;;;5044091;28;20330;-67
2023/07/14 10:37:31;;;;;;;;;;;;;;;;;;5044803;28;19958;-65
2023/07/14 10:39:57;;;;;;;;;;;;;;;;;;5044448;28;19924;-69
2023/07/14 10:42:23;;;;;;;;;;;;;;;;;;5043582;28;20293;-67
2023/07/14 10:44:49;;;;;;;;;;;;;;;;;;5042650;28;19985;-68
2023/07/14 10:47:15;;;;;;;;;;;;;;;;;;5036651;28;20558;-68
2023/07/14 10:49:41;;;;;;;;;;;;;;;;;;5043745;28;19936;-67
2023/07/14 10:52:07;;;;;;;;;;;;;;;;;;5044241;28;19920;-69
2023/07/14 10:54:33;;;;;;;;;;;;;;;;;;5044210;28;20019;-68
2023/07/14 10:56:59;;;;;;;;;;;;;;;;;;5042922;28;19932;-68
2023/07/14 10:59:25;;;;;;;;;;;;;;;;;;5041744;28;19920;-68
2023/07/14 11:01:50;;;;;;;;;;;;;;;;;;5042976;28;20674;-68
2023/07/14 11:04:16;;;;;;;;;;;;;;;;;;5042671;28;19929;-68
2023/07/14 11:06:43;;;;;;;;;;;;;;;;;;5039965;28;20026;-67
2023/07/14 11:09:08;;;;;;;;;;;;;;;;;;5042946;28;19925;-68
2023/07/14 11:11:37;;;;;;;;;;;;;;;;;;5041946;28;20010;-68
2023/07/14 11:14:03;;;;;;;;;;;;;;;;;;5042586;28;20378;-68
2023/07/14 11:16:29;;;;;;;;;;;;;;;;;;5042458;28;19991;-68
2023/07/14 11:18:54;;;;;;;;;;;;;;;;;;5041943;28;19925;-68
2023/07/14 11:21:20;;;;;;;;;;;;;;;;;;5043594;28;20254;-67
2023/07/14 11:23:46;;;;;;;;;;;;;;;;;;5043216;28;19979;-68
2023/07/14 11:26:12;;;;;;;;;;;;;;;;;;5043284;28;19932;-67
2023/07/14 11:28:38;;;;;;;;;;;;;;;;;;5043993;28;20321;-67
2023/07/14 11:31:04;;;;;;;;;;;;;;;;;;5043107;28;19925;-68
2023/07/14 11:33:30;;;;;;;;;;;;;;;;;;5043856;28;19925;-68
2023/07/14 11:35:56;;;;;;;;;;;;;;;;;;5043543;28;19925;-67
2023/07/14 11:38:22;;;;;;;;;;;;;;;;;;5043835;28;19986;-67
2023/07/14 11:40:48;;;;;;;;;;;;;;;;;;5043618;28;19924;-68
2023/07/14 11:43:14;;;;;;;;;;;;;;;;;;5042149;28;19925;-69
2023/07/14 11:45:40;;;;;;;;;;;;;;;;;;5042793;28;19975;-68
2023/07/14 11:48:06;;;;;;;;;;;;;;;;;;5043183;28;19921;-68
2023/07/14 11:50:32;;;;;;;;;;;;;;;;;;5055691;28;19955;-67
2023/07/14 11:52:58;;;;;;;;;;;;;;;;;;5043656;28;19925;-68
2023/07/14 11:55:24;;;;;;;;;;;;;;;;;;5043469;28;19924;-68
2023/07/14 11:57:50;;;;;;;;;;;;;;;;;;5042422;28;19925;-67
2023/07/14 12:00:17;;;;;;;;;;;;;;;;;;5042251;28;19975;-67
2023/07/14 12:02:43;;;;;;;;;;;;;;;;;;5042244;28;19928;-68
2023/07/14 12:05:09;;;;;;;;;;;;;;;;;;5043286;28;19925;-68
2023/07/14 12:07:34;;;;;;;;;;;;;;;;;;5042585;28;19925;-68
2023/07/14 12:10:00;;;;;;;;;;;;;;;;;;5043783;28;19925;-70
2023/07/14 12:12:26;;;;;;;;;;;;;;;;;;5042778;28;20617;-70
2023/07/14 12:14:52;;;;;;;;;;;;;;;;;;5042628;28;19924;-68
2023/07/14 12:17:18;;;;;;;;;;;;;;;;;;5043066;28;19928;-67
2023/07/14 12:19:44;;;;;;;;;;;;;;;;;;5043301;28;19929;-67
2023/07/14 12:22:10;;;;;;;;;;;;;;;;;;5042919;28;19994;-69
2023/07/14 12:24:38;;;;;;;;;;;;;;;;;;5043226;28;19929;-70
2023/07/14 12:27:03;;;;;;;;;;;;;;;;;;5042508;28;19925;-69
2023/07/14 12:29:29;;;;;;;;;;;;;;;;;;5042538;28;20397;-71
2023/07/14 12:31:55;;;;;;;;;;;;;;;;;;5042804;28;19924;-70
2023/07/14 12:34:21;;;;;;;;;;;;;;;;;;5043067;28;19989;-70
2023/07/14 12:36:47;;;;;;;;;;;;;;;;;;5042438;28;19933;-69
2023/07/14 12:39:13;;;;;;;;;;;;;;;;;;5042878;28;20010;-70
2023/07/14 12:41:39;;;;;;;;;;;;;;;;;;5041845;28;20067;-70
2023/07/14 12:44:05;;;;;;;;;;;;;;;;;;5041657;28;20028;-71
2023/07/14 12:46:31;;;;;;;;;;;;;;;;;;5042672;28;20043;-67
2023/07/14 12:48:57;;;;;;;;;;;;;;;;;;5024797;28;20414;-70
2023/07/14 12:51:23;;;;;;;;;;;;;;;;;;5038242;28;19935;-69
2023/07/14 12:53:49;;;;;;;;;;;;;;;;;;5040225;28;19929;-70
2023/07/14 12:56:15;;;;;;;;;;;;;;;;;;5039236;28;19936;-69
2023/07/14 12:58:41;;;;;;;;;;;;;;;;;;5040149;28;19929;-68
2023/07/14 13:01:07;;;;;;;;;;;;;;;;;;5022477;28;19964;-69
2023/07/14 13:03:32;;;;;;;;;;;;;;;;;;5040004;28;20017;-69
2023/07/14 13:05:59;;;;;;;;;;;;;;;;;;5040393;28;20136;-70
2023/07/14 13:08:25;;;;;;;;;;;;;;;;;;5040406;28;19925;-66
2023/07/14 13:10:51;;;;;;;;;;;;;;;;;;5041484;28;20461;-69
2023/07/14 13:13:17;;;;;;;;;;;;;;;;;;5044164;28;19925;-70
2023/07/14 13:15:43;;;;;;;;;;;;;;;;;;5043350;28;20008;-71
2023/07/14 13:18:09;;;;;;;;;;;;;;;;;;5043961;28;19974;-71
2023/07/14 13:20:35;;;;;;;;;;;;;;;;;;5043813;28;19925;-68
2023/07/14 13:23:01;;;;;;;;;;;;;;;;;;5044110;28;19936;-69
2023/07/14 13:25:27;;;;;;;;;;;;;;;;;;5043346;28;20011;-69
2023/07/14 13:27:54;;;;;;;;;;;;;;;;;;5042971;28;20110;-68
2023/07/14 13:30:20;;;;;;;;;;;;;;;;;;5022944;28;19933;-68
2023/07/14 13:32:46;;;;;;;;;;;;;;;;;;5042457;28;20647;-68
2023/07/14 13:35:12;;;;;;;;;;;;;;;;;;5043617;28;19929;-68
2023/07/14 13:37:37;;;;;;;;;;;;;;;;;;5043165;28;20007;-69
2023/07/14 13:40:03;;;;;;;;;;;;;;;;;;5043069;28;19987;-68
2023/07/14 13:42:33;;;;;;;;;;;;;;;;;;5042961;28;19928;-68
2023/07/14 13:44:59;;;;;;;;;;;;;;;;;;5043928;28;19928;-70
2023/07/14 13:47:25;;;;;;;;;;;;;;;;;;5043582;28;19929;-68
2023/07/14 13:49:51;;;;;;;;;;;;;;;;;;5055784;28;20335;-68
2023/07/14 13:52:17;;;;;;;;;;;;;;;;;;5042617;28;20773;-70
2023/07/14 13:54:44;;;;;;;;;;;;;;;;;;5042626;28;19932;-67
2023/07/14 13:57:10;;;;;;;;;;;;;;;;;;5041986;28;19936;-68
2023/07/14 13:59:36;;;;;;;;;;;;;;;;;;5043677;28;19932;-67
2023/07/14 14:02:02;;;;;;;;;;;;;;;;;;5024883;28;20096;-67
2023/07/14 14:04:28;;;;;;;;;;;;;;;;;;5030576;28;19936;-68
2023/07/14 14:06:54;;;;;;;;;;;;;;;;;;5041496;28;19925;-68
2023/07/14 14:09:20;;;;;;;;;;;;;;;;;;5043233;28;19928;-69
2023/07/14 14:11:46;;;;;;;;;;;;;;;;;;5041362;28;19978;-69
2023/07/14 14:14:12;;;;;;;;;;;;;;;;;;5041915;28;19954;-70
2023/07/14 14:16:38;;;;;;;;;;;;;;;;;;5042770;28;20656;-68
2023/07/14 14:19:05;;;;;;;;;;;;;;;;;;5042712;28;20252;-68
2023/07/14 14:21:33;;;;;;;;;;;;;;;;;;5042585;28;19947;-62
2023/07/14 14:23:59;;;;;;;;;;;;;;;;;;5042485;28;20024;-68
2023/07/14 14:26:25;;;;;;;;;;;;;;;;;;5041996;28;19924;-69
2023/07/14 14:28:51;;;;;;;;;;;;;;;;;;5042556;28;19935;-67
2023/07/14 14:31:17;;;;;;;;;;;;;;;;;;5014913;28;19925;-69
2023/07/14 14:33:43;;;;;;;;;;;;;;;;;;5042501;28;20023;-67
2023/07/14 14:36:09;;;;;;;;;;;;;;;;;;5042468;28;19928;-68
2023/07/14 14:38:35;;;;;;;;;;;;;;;;;;5042933;28;19935;-68
2023/07/14 14:41:02;;;;;;;;;;;;;;;;;;5041690;28;19929;-64
2023/07/14 14:43:28;;;;;;;;;;;;;;;;;;5041519;28;19983;-69
2023/07/14 14:45:54;;;;;;;;;;;;;;;;;;5042663;28;19933;-68
2023/07/14 14:48:20;;;;;;;;;;;;;;;;;;5042429;28;20288;-70
2023/07/14 14:50:46;;;;;;;;;;;;;;;;;;5042579;28;19975;-68
2023/07/14 14:53:11;;;;;;;;;;;;;;;;;;5042046;28;19940;-69
2023/07/14 14:55:38;;;;;;;;;;;;;;;;;;5041685;28;19952;-69
2023/07/14 14:58:04;;;;;;;;;;;;;;;;;;5042114;28;19928;-68
2023/07/14 15:00:30;;;;;;;;;;;;;;;;;;5042299;28;20298;-70
2023/07/14 15:02:55;;;;;;;;;;;;;;;;;;5041588;28;19936;-71
2023/07/14 15:05:21;;;;;;;;;;;;;;;;;;5023700;28;19940;-69
2023/07/14 15:07:47;;;;;;;;;;;;;;;;;;5042159;28;19929;-69
2023/07/14 15:10:13;;;;;;;;;;;;;;;;;;5041498;28;20381;-70
2023/07/14 15:12:40;;;;;;;;;;;;;;;;;;5040977;28;20386;-69
2023/07/14 15:15:06;;;;;;;;;;;;;;;;;;5041548;28;19925;-69
2023/07/14 15:17:33;;;;;;;;;;;;;;;;;;5041357;28;20376;-68
2023/07/14 15:19:59;;;;;;;;;;;;;;;;;;5040667;28;19929;-70
2023/07/14 15:22:27;;;;;;;;;;;;;;;;;;5041314;28;19929;-70
2023/07/14 15:24:53;;;;;;;;;;;;;;;;;;5041659;28;19951;-68
2023/07/14 15:27:19;;;;;;;;;;;;;;;;;;5040727;28;19936;-70
2023/07/14 15:29:45;;;;;;;;;;;;;;;;;;5042163;28;19929;-70
2023/07/14 15:32:12;;;;;;;;;;;;;;;;;;5040500;28;19929;-68
2023/07/14 15:34:38;;;;;;;;;;;;;;;;;;5035168;28;20424;-70
2023/07/14 15:37:04;;;;;;;;;;;;;;;;;;5040063;28;19932;-69
2023/07/14 15:39:30;;;;;;;;;;;;;;;;;;5041093;28;19971;-70
2023/07/14 15:41:56;;;;;;;;;;;;;;;;;;5040130;28;20023;-69
2023/07/14 15:44:21;;;;;;;;;;;;;;;;;;5040515;28;19928;-68
2023/07/14 15:46:47;;;;;;;;;;;;;;;;;;5041188;28;19932;-70
2023/07/14 15:49:14;;;;;;;;;;;;;;;;;;5041294;28;19931;-68
2023/07/14 15:51:42;;;;;;;;;;;;;;;;;;5041305;28;19971;-70
2023/07/14 15:54:08;;;;;;;;;;;;;;;;;;5041034;28;19933;-70
2023/07/14 15:56:35;;;;;;;;;;;;;;;;;;5039831;28;20344;-70
2023/07/14 15:59:01;;;;;;;;;;;;;;;;;;5040906;28;20365;-69
2023/07/14 16:01:27;;;;;;;;;;;;;;;;;;5040339;28;19935;-68
2023/07/14 16:03:53;;;;;;;;;;;;;;;;;;5040765;28;19936;-68
2023/07/14 16:06:19;;;;;;;;;;;;;;;;;;5041065;28;20673;-68
2023/07/14 16:08:45;;;;;;;;;;;;;;;;;;5040658;28;19968;-69
2023/07/14 16:11:11;;;;;;;;;;;;;;;;;;5040367;28;20565;-68
2023/07/14 16:13:38;;;;;;;;;;;;;;;;;;5040039;28;19928;-69
2023/07/14 16:16:04;;;;;;;;;;;;;;;;;;5040333;28;20585;-69
2023/07/14 16:18:29;;;;;;;;;;;;;;;;;;5041446;28;19931;-69
2023/07/14 16:20:55;;;;;;;;;;;;;;;;;;5040915;28;19925;-69
2023/07/14 16:23:21;;;;;;;;;;;;;;;;;;5040430;28;19935;-68
2023/07/14 16:25:48;;;;;;;;;;;;;;;;;;5039964;28;19925;-69
2023/07/14 16:28:14;;;;;;;;;;;;;;;;;;5039587;28;19921;-69
2023/07/14 16:30:40;;;;;;;;;;;;;;;;;;5040556;28;19990;-70
2023/07/14 16:33:06;;;;;;;;;;;;;;;;;;5040520;28;20579;-70
2023/07/14 16:35:32;;;;;;;;;;;;;;;;;;5040334;28;19935;-70
2023/07/14 16:38:01;;;;;;;;;;;;;;;;;;5041213;28;19933;-70